createdAt,value
2019-06-10T00:01:06.957Z,21.12
2019-06-10T00:03:32.031Z,21.00
2019-06-10T00:05:57.952Z,21.00
2019-06-10T00:08:24.988Z,20.94
2019-06-10T00:10:51.214Z,20.81
2019-06-10T00:13:17.260Z,21.00
2019-06-10T00:15:43.108Z,20.88
2019-06-10T00:18:32.913Z,20.88
2019-06-10T00:20:37.122Z,20.88
2019-06-10T00:23:05.183Z,20.88
2019-06-10T00:25:31.414Z,20.81
2019-06-10T00:27:57.910Z,20.94
2019-06-10T00:30:23.848Z,20.75
2019-06-10T00:32:51.545Z,20.69
2019-06-10T00:35:17.772Z,20.56
2019-06-10T00:37:43.608Z,20.50
2019-06-10T00:40:13.778Z,20.50
2019-06-10T00:42:37.279Z,20.31
2019-06-10T00:45:05.765Z,20.44
2019-06-10T00:47:31.061Z,20.25
2019-06-10T00:49:56.902Z,20.25
2019-06-10T00:52:22.687Z,20.25
2019-06-10T00:54:48.562Z,20.19
2019-06-10T00:57:14.459Z,20.25
2019-06-10T00:59:41.374Z,20.31
2019-06-10T01:02:08.190Z,20.31
2019-06-10T01:04:35.583Z,20.12
2019-06-10T01:07:02.490Z,20.12
2019-06-10T01:09:28.466Z,20.12
2019-06-10T01:11:54.300Z,20.19
2019-06-10T01:14:21.567Z,20.12
2019-06-10T01:16:47.666Z,20.19
2019-06-10T01:19:15.678Z,20.06
2019-06-10T01:21:41.578Z,20.25
2019-06-10T01:24:07.450Z,20.00
2019-06-10T01:26:33.280Z,19.94
2019-06-10T01:29:00.971Z,20.00
2019-06-10T01:31:26.883Z,19.87
2019-06-10T01:33:52.730Z,20.12
2019-06-10T01:36:20.898Z,19.94
2019-06-10T01:38:46.321Z,19.94
2019-06-10T01:41:13.844Z,20.06
2019-06-10T01:43:40.772Z,20.19
2019-06-10T01:46:06.867Z,20.12
2019-06-10T01:48:43.971Z,19.87
2019-06-10T01:51:01.835Z,19.94
2019-06-10T01:53:28.283Z,19.94
2019-06-10T01:55:54.131Z,20.06
2019-06-10T01:58:23.290Z,20.06
2019-06-10T02:00:58.528Z,20.12
2019-06-10T02:03:24.355Z,19.81
2019-06-10T02:05:51.635Z,19.81
2019-06-10T02:08:19.267Z,19.75
2019-06-10T02:10:45.583Z,19.81
2019-06-10T02:13:32.757Z,19.94
2019-06-10T02:16:00.504Z,19.94
2019-06-10T02:18:26.239Z,19.81
2019-06-10T02:20:52.071Z,19.81
2019-06-10T02:23:18.714Z,20.00
2019-06-10T02:25:44.711Z,19.87
2019-06-10T02:28:13.060Z,19.87
2019-06-10T02:30:46.118Z,19.87
2019-06-10T02:33:06.021Z,19.75
2019-06-10T02:35:43.338Z,19.75
2019-06-10T02:37:59.607Z,19.75
2019-06-10T02:40:31.800Z,19.87
2019-06-10T02:42:55.381Z,19.75
2019-06-10T02:45:32.018Z,19.87
2019-06-10T02:47:53.350Z,20.00
2019-06-10T02:50:31.445Z,20.12
2019-06-10T02:52:52.922Z,19.37
2019-06-10T02:55:19.681Z,18.50
2019-06-10T02:57:45.499Z,18.19
2019-06-10T03:00:20.852Z,17.87
2019-06-10T03:02:39.618Z,17.75
2019-06-10T03:05:05.562Z,18.12
2019-06-10T03:07:35.270Z,17.75
2019-06-10T03:10:04.667Z,17.50
2019-06-10T03:12:33.111Z,17.62
2019-06-10T03:14:57.503Z,17.50
2019-06-10T03:17:25.984Z,17.69
2019-06-10T03:19:53.567Z,17.50
2019-06-10T03:22:20.594Z,17.56
2019-06-10T03:24:47.422Z,17.44
2019-06-10T03:27:13.273Z,17.44
2019-06-10T03:29:39.210Z,17.50
2019-06-10T03:32:05.726Z,17.25
2019-06-10T03:34:41.186Z,17.62
2019-06-10T03:36:59.453Z,17.37
2019-06-10T03:39:27.389Z,17.56
2019-06-10T03:41:53.048Z,17.44
2019-06-10T03:44:18.990Z,17.37
2019-06-10T03:46:45.126Z,17.44
2019-06-10T03:49:12.648Z,17.44
2019-06-10T03:51:38.785Z,17.56
2019-06-10T03:54:04.640Z,17.44
2019-06-10T03:56:32.234Z,17.19
2019-06-10T03:58:58.248Z,17.25
2019-06-10T04:01:26.951Z,17.19
2019-06-10T04:03:52.948Z,17.37
2019-06-10T04:06:19.601Z,17.06
2019-06-10T04:08:45.715Z,16.94
2019-06-10T04:11:12.158Z,16.81
2019-06-10T04:13:38.290Z,16.81
2019-06-10T04:16:04.219Z,16.62
2019-06-10T04:18:32.492Z,16.62
2019-06-10T04:20:58.026Z,16.75
2019-06-10T04:23:25.429Z,16.56
2019-06-10T04:25:52.685Z,16.62
2019-06-10T04:28:19.739Z,16.44
2019-06-10T04:30:45.746Z,16.50
2019-06-10T04:33:12.680Z,16.62
2019-06-10T04:35:38.762Z,16.44
2019-06-10T04:38:04.666Z,16.69
2019-06-10T04:40:32.807Z,16.25
2019-06-10T04:42:58.239Z,16.44
2019-06-10T04:45:26.262Z,16.56
2019-06-10T04:47:52.417Z,16.44
2019-06-10T04:50:24.779Z,16.25
2019-06-10T04:52:46.182Z,16.37
2019-06-10T04:55:12.614Z,16.37
2019-06-10T04:57:38.858Z,16.06
2019-06-10T05:00:11.194Z,16.25
2019-06-10T05:02:34.822Z,16.25
2019-06-10T05:05:02.924Z,16.12
2019-06-10T05:07:33.409Z,15.94
2019-06-10T05:09:56.698Z,16.25
2019-06-10T05:12:24.972Z,16.06
2019-06-10T05:14:52.546Z,16.31
2019-06-10T05:17:19.178Z,16.44
2019-06-10T05:19:47.273Z,16.44
2019-06-10T05:22:14.891Z,16.31
2019-06-10T05:24:42.424Z,16.31
2019-06-10T05:27:08.464Z,16.44
2019-06-10T05:29:34.391Z,16.25
2019-06-10T05:32:02.403Z,16.37
2019-06-10T05:34:28.783Z,16.00
2019-06-10T05:36:55.737Z,16.06
2019-06-10T05:39:24.303Z,16.37
2019-06-10T05:41:50.280Z,16.31
2019-06-10T05:44:17.077Z,16.44
2019-06-10T05:46:43.559Z,16.50
2019-06-10T05:49:12.487Z,16.31
2019-06-10T05:51:37.703Z,16.31
2019-06-10T05:54:03.631Z,16.31
2019-06-10T05:56:33.493Z,16.44
2019-06-10T05:59:01.509Z,16.19
2019-06-10T06:01:29.680Z,16.37
2019-06-10T06:03:55.587Z,16.25
2019-06-10T06:06:23.015Z,16.50
2019-06-10T06:08:49.115Z,16.44
2019-06-10T06:11:14.971Z,16.62
2019-06-10T06:13:42.988Z,16.56
2019-06-10T06:16:08.527Z,16.62
2019-06-10T06:18:36.440Z,16.69
2019-06-10T06:21:19.958Z,16.62
2019-06-10T06:23:32.869Z,16.50
2019-06-10T06:25:57.592Z,16.44
2019-06-10T06:28:23.432Z,16.69
2019-06-10T06:30:49.334Z,16.69
2019-06-10T06:33:15.223Z,16.75
2019-06-10T06:35:46.068Z,16.75
2019-06-10T06:38:08.927Z,16.81
2019-06-10T06:40:37.201Z,17.00
2019-06-10T06:43:02.788Z,17.19
2019-06-10T06:45:29.663Z,17.19
2019-06-10T06:47:55.563Z,17.19
2019-06-10T06:50:25.433Z,17.87
2019-06-10T06:53:18.781Z,17.81
2019-06-10T06:55:17.091Z,17.81
2019-06-10T06:57:47.831Z,17.81
2019-06-10T07:00:35.388Z,17.81
2019-06-10T07:02:43.492Z,17.94
2019-06-10T07:05:12.388Z,17.87
2019-06-10T07:07:38.636Z,17.69
2019-06-10T07:10:06.361Z,17.94
2019-06-10T07:12:33.769Z,18.37
2019-06-10T07:17:55.939Z,18.19
2019-06-10T07:20:22.982Z,18.19
2019-06-10T07:22:48.940Z,18.25
2019-06-10T07:25:16.464Z,18.31
2019-06-10T07:27:45.172Z,18.62
2019-06-10T07:30:12.557Z,18.87
2019-06-10T07:32:39.176Z,19.00
2019-06-10T07:35:05.767Z,19.12
2019-06-10T07:37:32.785Z,18.94
2019-06-10T07:39:59.511Z,18.87
2019-06-10T07:45:23.305Z,19.19
2019-06-10T07:47:49.267Z,19.00
2019-06-10T07:50:15.425Z,19.37
2019-06-10T07:52:45.011Z,19.37
2019-06-10T07:55:09.838Z,19.31
2019-06-10T07:57:35.994Z,19.12
2019-06-10T08:00:13.651Z,19.25
2019-06-10T08:02:39.770Z,19.31
2019-06-10T08:05:07.488Z,19.50
2019-06-10T08:07:33.896Z,19.50
2019-06-10T08:10:02.863Z,19.44
2019-06-10T08:12:28.856Z,19.44
2019-06-10T08:14:54.725Z,19.87
2019-06-10T08:17:22.433Z,19.81
2019-06-10T08:19:50.964Z,19.94
2019-06-10T08:22:29.962Z,20.06
2019-06-10T08:24:45.405Z,20.19
2019-06-10T08:27:12.049Z,20.06
2019-06-10T08:29:38.625Z,20.37
2019-06-10T08:32:08.140Z,20.37
2019-06-10T08:34:34.102Z,20.12
2019-06-10T08:37:04.046Z,20.37
2019-06-10T08:39:27.948Z,20.50
2019-06-10T08:41:53.782Z,20.62
2019-06-10T08:44:19.653Z,20.81
2019-06-10T08:46:46.902Z,20.81
2019-06-10T08:49:13.258Z,20.62
2019-06-10T08:51:39.658Z,20.81
2019-06-10T08:54:05.643Z,20.94
2019-06-10T08:56:32.764Z,20.75
2019-06-10T08:58:59.136Z,20.81
2019-06-10T09:01:25.143Z,20.81
2019-06-10T09:03:53.476Z,21.12
2019-06-10T09:06:19.146Z,21.19
2019-06-10T09:08:47.994Z,21.12
2019-06-10T09:11:13.203Z,21.25
2019-06-10T09:13:40.747Z,21.31
2019-06-10T09:16:15.609Z,21.75
2019-06-10T09:18:34.853Z,21.87
2019-06-10T09:21:02.298Z,21.75
2019-06-10T09:23:28.432Z,21.62
2019-06-10T09:25:57.291Z,21.94
2019-06-10T09:28:23.606Z,21.94
2019-06-10T09:30:54.020Z,22.06
2019-06-10T09:33:17.533Z,22.13
2019-06-10T09:35:46.162Z,22.19
2019-06-10T09:38:13.709Z,22.25
2019-06-10T09:40:53.210Z,22.25
2019-06-10T09:43:17.230Z,22.44
2019-06-10T09:45:47.587Z,22.44
2019-06-10T09:48:15.039Z,22.50
2019-06-10T09:50:47.039Z,22.56
2019-06-10T09:53:09.540Z,22.69
2019-06-10T09:55:35.387Z,22.56
2019-06-10T09:58:05.196Z,22.62
2019-06-10T10:00:49.313Z,22.37
2019-06-10T10:03:13.969Z,22.56
2019-06-10T10:05:51.919Z,22.69
2019-06-10T10:08:07.780Z,22.62
2019-06-10T10:10:36.036Z,22.50
2019-06-10T10:13:02.842Z,22.62
2019-06-10T10:15:34.285Z,22.62
2019-06-10T10:17:58.513Z,22.69
2019-06-10T10:20:24.373Z,22.62
2019-06-10T10:22:50.599Z,22.69
2019-06-10T10:25:17.927Z,22.87
2019-06-10T10:27:48.879Z,22.87
2019-06-10T10:30:13.487Z,22.81
2019-06-10T10:32:39.395Z,22.94
2019-06-10T10:35:05.367Z,22.94
2019-06-10T10:37:32.269Z,23.06
2019-06-10T10:39:58.875Z,23.19
2019-06-10T10:42:24.961Z,23.25
2019-06-10T10:44:57.477Z,23.31
2019-06-10T10:47:20.803Z,23.31
2019-06-10T10:49:49.046Z,23.44
2019-06-10T10:52:15.054Z,23.38
2019-06-10T10:54:43.197Z,23.56
2019-06-10T10:57:13.061Z,23.56
2019-06-10T10:59:38.377Z,23.75
2019-06-10T11:02:04.357Z,23.62
2019-06-10T11:04:32.672Z,23.62
2019-06-10T11:07:00.916Z,23.75
2019-06-10T11:09:26.205Z,23.69
2019-06-10T11:11:54.908Z,23.69
2019-06-10T11:14:23.034Z,23.81
2019-06-10T11:16:49.519Z,23.94
2019-06-10T11:19:15.572Z,23.87
2019-06-10T11:21:43.151Z,23.69
2019-06-10T11:24:09.490Z,23.44
2019-06-10T11:26:37.332Z,23.31
2019-06-10T11:29:03.188Z,23.25
2019-06-10T11:31:29.107Z,23.25
2019-06-10T11:33:57.862Z,23.19
2019-06-10T11:36:22.953Z,23.25
2019-06-10T11:38:50.457Z,23.31
2019-06-10T11:41:16.942Z,23.31
2019-06-10T11:43:43.283Z,23.44
2019-06-10T11:46:09.337Z,23.44
2019-06-10T11:48:35.189Z,23.50
2019-06-10T11:51:04.190Z,23.56
2019-06-10T11:53:31.215Z,23.56
2019-06-10T11:55:59.450Z,23.50
2019-06-10T11:58:25.334Z,23.56
2019-06-10T12:00:55.851Z,23.69
2019-06-10T12:03:19.032Z,23.69
2019-06-10T12:05:45.098Z,23.81
2019-06-10T12:08:13.079Z,23.87
2019-06-10T12:10:40.178Z,23.87
2019-06-10T12:13:07.251Z,24.06
2019-06-10T12:16:09.664Z,24.00
2019-06-10T12:18:07.976Z,24.12
2019-06-10T12:20:29.081Z,24.06
2019-06-10T12:22:58.199Z,24.12
2019-06-10T12:25:32.510Z,24.12
2019-06-10T12:27:51.589Z,24.12
2019-06-10T12:30:18.881Z,24.25
2019-06-10T12:32:44.768Z,24.19
2019-06-10T12:35:13.786Z,24.19
2019-06-10T12:37:42.495Z,24.25
2019-06-10T12:40:08.827Z,24.37
2019-06-10T12:42:36.342Z,24.37
2019-06-10T12:45:08.577Z,24.44
2019-06-10T12:47:34.794Z,24.37
2019-06-10T12:50:01.781Z,24.31
2019-06-10T12:52:28.390Z,24.37
2019-06-10T12:54:55.504Z,24.44
2019-06-10T12:57:22.994Z,24.50
2019-06-10T12:59:49.015Z,24.44
2019-06-10T13:02:22.992Z,24.44
2019-06-10T13:04:43.338Z,24.50
2019-06-10T13:07:09.552Z,24.56
2019-06-10T13:09:35.491Z,24.63
2019-06-10T13:12:02.042Z,24.94
2019-06-10T13:14:28.350Z,24.69
2019-06-10T13:16:55.893Z,24.81
2019-06-10T13:19:23.181Z,24.94
2019-06-10T13:21:49.457Z,25.00
2019-06-10T13:24:16.863Z,24.94
2019-06-10T13:26:43.319Z,24.94
2019-06-10T13:29:14.299Z,24.94
2019-06-10T13:31:38.450Z,25.00
2019-06-10T13:34:09.105Z,25.06
2019-06-10T13:36:33.121Z,25.12
2019-06-10T13:39:01.725Z,25.19
2019-06-10T13:41:27.771Z,25.25
2019-06-10T13:43:55.011Z,25.56
2019-06-10T13:46:24.321Z,25.31
2019-06-10T13:48:48.928Z,25.25
2019-06-10T13:51:16.731Z,25.56
2019-06-10T13:53:46.319Z,25.31
2019-06-10T13:56:32.082Z,25.31
2019-06-10T13:58:45.003Z,25.19
2019-06-10T14:01:12.020Z,25.25
2019-06-10T14:03:36.607Z,25.31
2019-06-10T14:06:21.237Z,25.31
2019-06-10T14:08:32.929Z,25.31
2019-06-10T14:10:58.809Z,25.31
2019-06-10T14:13:24.762Z,25.37
2019-06-10T14:15:53.137Z,25.37
2019-06-10T14:18:18.371Z,25.37
2019-06-10T14:20:44.246Z,25.31
2019-06-10T14:23:10.204Z,25.31
2019-06-10T14:25:37.944Z,25.37
2019-06-10T14:28:07.330Z,25.37
2019-06-10T14:30:32.358Z,25.37
2019-06-10T14:32:58.443Z,25.44
2019-06-10T14:35:26.807Z,25.44
2019-06-10T14:37:53.441Z,25.56
2019-06-10T14:40:21.080Z,25.44
2019-06-10T14:42:47.325Z,25.62
2019-06-10T14:45:13.997Z,25.81
2019-06-10T14:47:43.127Z,25.94
2019-06-10T14:50:09.348Z,25.75
2019-06-10T14:52:35.199Z,25.62
2019-06-10T14:55:02.647Z,25.56
2019-06-10T14:57:28.668Z,25.69
2019-06-10T14:59:54.512Z,25.88
2019-06-10T15:02:20.495Z,25.69
2019-06-10T15:04:46.511Z,25.69
2019-06-10T15:07:13.636Z,26.19
2019-06-10T15:09:39.527Z,25.88
2019-06-10T15:12:05.666Z,25.94
2019-06-10T15:14:32.381Z,26.06
2019-06-10T15:16:58.456Z,25.88
2019-06-10T15:19:28.279Z,25.75
2019-06-10T15:21:52.404Z,25.69
2019-06-10T15:24:18.502Z,25.94
2019-06-10T15:26:44.591Z,25.88
2019-06-10T15:29:11.854Z,25.69
2019-06-10T15:31:38.260Z,25.75
2019-06-10T15:34:04.199Z,25.69
2019-06-10T15:36:32.509Z,25.75
2019-06-10T15:38:57.797Z,25.69
2019-06-10T15:41:24.610Z,25.81
2019-06-10T15:43:52.885Z,25.81
2019-06-10T15:46:19.560Z,25.75
2019-06-10T15:48:46.204Z,25.62
2019-06-10T15:51:15.331Z,25.75
2019-06-10T15:53:39.790Z,25.56
2019-06-10T15:56:16.719Z,25.69
2019-06-10T15:58:33.394Z,25.62
2019-06-10T16:00:59.337Z,25.81
2019-06-10T16:03:25.793Z,25.69
2019-06-10T16:05:52.794Z,25.69
2019-06-10T16:08:20.203Z,25.62
2019-06-10T16:10:46.247Z,25.75
2019-06-10T16:13:12.492Z,25.75
2019-06-10T16:15:38.515Z,25.81
2019-06-10T16:18:04.380Z,25.81
2019-06-10T16:20:32.413Z,25.75
2019-06-10T16:22:58.418Z,25.69
2019-06-10T16:25:26.520Z,25.81
2019-06-10T16:27:54.467Z,25.81
2019-06-10T16:30:20.817Z,25.62
2019-06-10T16:32:47.493Z,25.62
2019-06-10T16:35:14.770Z,25.75
2019-06-10T16:37:42.205Z,25.69
2019-06-10T16:40:08.599Z,25.94
2019-06-10T16:42:34.530Z,25.62
2019-06-10T16:45:02.496Z,25.69
2019-06-10T16:47:29.645Z,25.56
2019-06-10T16:49:55.828Z,25.62
2019-06-10T16:52:24.029Z,25.69
2019-06-10T16:54:52.615Z,25.56
2019-06-10T16:57:19.723Z,25.69
2019-06-10T16:59:45.791Z,25.62
2019-06-10T17:02:12.779Z,25.62
2019-06-10T17:04:38.766Z,25.50
2019-06-10T17:07:04.662Z,25.69
2019-06-10T17:09:32.673Z,25.62
2019-06-10T17:11:58.257Z,25.56
2019-06-10T17:14:25.962Z,25.50
2019-06-10T17:16:52.778Z,25.69
2019-06-10T17:19:18.878Z,25.69
2019-06-10T17:21:44.730Z,25.50
2019-06-10T17:24:12.766Z,25.37
2019-06-10T17:26:38.512Z,25.37
2019-06-10T17:29:04.611Z,25.37
2019-06-10T17:31:32.838Z,25.62
2019-06-10T17:33:58.282Z,25.44
2019-06-10T17:36:26.401Z,25.37
2019-06-10T17:38:52.334Z,25.37
2019-06-10T17:41:18.408Z,25.50
2019-06-10T17:43:44.360Z,25.44
2019-06-10T17:46:12.408Z,25.31
2019-06-10T17:48:38.340Z,25.31
2019-06-10T17:51:04.335Z,25.50
2019-06-10T17:53:30.875Z,25.44
2019-06-10T17:55:57.926Z,25.25
2019-06-10T17:58:40.796Z,25.31
2019-06-10T18:00:53.045Z,25.31
2019-06-10T18:03:19.196Z,25.25
2019-06-10T18:05:45.188Z,25.25
2019-06-10T18:08:13.111Z,25.25
2019-06-10T18:10:38.821Z,25.37
2019-06-10T18:19:46.667Z,25.25
2019-06-10T18:22:12.700Z,25.31
2019-06-10T18:24:38.601Z,25.31
2019-06-10T18:27:04.529Z,25.44
2019-06-10T18:29:33.669Z,25.12
2019-06-10T18:31:58.119Z,25.12
2019-06-10T18:34:23.999Z,25.00
2019-06-10T18:36:52.007Z,24.94
2019-06-10T18:39:17.758Z,24.87
2019-06-10T18:41:43.981Z,24.87
2019-06-10T18:44:19.876Z,24.94
2019-06-10T18:46:40.179Z,24.94
2019-06-10T18:49:13.070Z,24.81
2019-06-10T18:51:39.734Z,24.75
2019-06-10T18:54:05.834Z,24.81
2019-06-10T18:56:33.669Z,24.81
2019-06-10T18:59:13.463Z,24.81
2019-06-10T19:01:28.249Z,24.63
2019-06-10T19:03:54.238Z,24.50
2019-06-10T19:06:20.087Z,24.56
2019-06-10T19:08:45.919Z,24.44
2019-06-10T19:11:11.994Z,24.37
2019-06-10T19:13:39.178Z,24.44
2019-06-10T19:16:05.855Z,24.25
2019-06-10T19:18:31.989Z,24.31
2019-06-10T19:20:58.332Z,24.31
2019-06-10T19:23:24.283Z,24.25
2019-06-10T19:25:52.499Z,24.06
2019-06-10T19:28:18.380Z,24.37
2019-06-10T19:30:44.917Z,24.12
2019-06-10T19:33:12.699Z,24.06
2019-06-10T19:35:39.662Z,24.06
2019-06-10T19:38:05.726Z,24.31
2019-06-10T19:40:33.498Z,24.25
2019-06-10T19:42:59.388Z,24.06
2019-06-10T19:45:25.264Z,24.19
2019-06-10T19:47:52.296Z,24.12
2019-06-10T19:50:18.448Z,23.94
2019-06-10T19:52:46.252Z,23.94
2019-06-10T19:55:13.300Z,24.12
2019-06-10T19:57:39.550Z,23.94
2019-06-10T20:00:12.575Z,24.06
2019-06-10T20:02:37.601Z,24.00
2019-06-10T20:05:05.290Z,23.94
2019-06-10T20:07:31.215Z,23.75
2019-06-10T20:09:57.197Z,23.81
2019-06-10T20:12:23.079Z,23.69
2019-06-10T20:14:49.076Z,23.81
2019-06-10T20:17:15.768Z,23.75
2019-06-10T20:19:44.332Z,23.75
2019-06-10T20:22:12.114Z,23.69
2019-06-10T20:24:38.433Z,23.44
2019-06-10T20:27:04.388Z,23.50
2019-06-10T20:29:30.236Z,23.44
2019-06-10T20:31:56.404Z,23.50
2019-06-10T20:34:24.444Z,23.50
2019-06-10T20:37:04.746Z,23.38
2019-06-10T20:39:32.860Z,23.38
2019-06-10T20:41:58.520Z,23.38
2019-06-10T20:44:24.449Z,23.31
2019-06-10T20:46:52.710Z,23.25
2019-06-10T20:49:18.128Z,23.69
2019-06-10T20:51:57.638Z,23.50
2019-06-10T20:54:12.835Z,23.38
2019-06-10T20:56:38.884Z,23.56
2019-06-10T20:59:05.002Z,23.38
2019-06-10T21:01:35.828Z,23.06
2019-06-10T21:04:03.243Z,23.00
2019-06-10T21:06:32.746Z,23.12
2019-06-10T21:08:58.961Z,22.87
2019-06-10T21:11:24.909Z,22.87
2019-06-10T21:13:52.390Z,23.00
2019-06-10T21:16:18.706Z,22.94
2019-06-10T21:18:47.410Z,22.62
2019-06-10T21:21:12.386Z,22.81
2019-06-10T21:23:38.228Z,22.69
2019-06-10T21:26:04.074Z,22.75
2019-06-10T21:28:32.446Z,22.56
2019-06-10T21:30:58.869Z,22.56
2019-06-10T21:33:25.074Z,22.50
2019-06-10T21:35:54.640Z,22.37
2019-06-10T21:38:18.781Z,22.50
2019-06-10T21:40:45.480Z,22.50
2019-06-10T21:43:13.017Z,22.37
2019-06-10T21:45:39.086Z,22.31
2019-06-10T21:48:04.944Z,22.31
2019-06-10T21:50:33.444Z,22.19
2019-06-10T21:52:58.818Z,22.25
2019-06-10T21:55:24.715Z,22.25
2019-06-10T21:57:51.549Z,22.25
2019-06-10T22:00:22.343Z,22.13
2019-06-10T22:02:58.106Z,22.13
2019-06-10T22:05:16.315Z,22.19
2019-06-10T22:07:44.061Z,22.19
2019-06-10T22:10:12.626Z,22.06
2019-06-10T22:12:37.910Z,22.06
2019-06-10T22:15:12.495Z,22.25
2019-06-10T22:17:38.484Z,22.06
2019-06-10T22:20:04.851Z,22.06
2019-06-10T22:22:32.322Z,22.06
2019-06-10T22:24:58.392Z,21.94
2019-06-10T22:27:24.572Z,22.06
2019-06-10T22:29:51.904Z,21.81
2019-06-10T22:32:29.279Z,21.75
2019-06-10T22:34:55.846Z,21.81
2019-06-10T22:37:23.777Z,21.69
2019-06-10T22:39:50.027Z,21.69
2019-06-10T22:42:15.986Z,21.69
2019-06-10T22:44:42.427Z,21.56
2019-06-10T22:47:08.492Z,21.62
2019-06-10T22:49:34.295Z,21.56
2019-06-10T22:52:00.428Z,21.56
2019-06-10T22:54:26.487Z,21.50
2019-06-10T22:56:56.224Z,21.50
2019-06-10T22:59:22.797Z,21.56
2019-06-10T23:01:48.782Z,21.44
2019-06-10T23:04:14.689Z,21.44
2019-06-10T23:06:40.627Z,21.44
2019-06-10T23:09:06.481Z,21.37
2019-06-10T23:11:32.443Z,21.25
2019-06-10T23:13:59.588Z,21.31
2019-06-10T23:16:25.611Z,21.12
2019-06-10T23:18:53.595Z,21.31
2019-06-10T23:21:19.202Z,21.12
2019-06-10T23:23:45.028Z,21.12
2019-06-10T23:26:12.959Z,21.19
2019-06-10T23:28:38.635Z,21.00
2019-06-10T23:31:05.237Z,21.00
2019-06-10T23:33:32.380Z,21.19
2019-06-10T23:35:58.742Z,21.00
2019-06-10T23:38:24.684Z,21.06
2019-06-10T23:40:52.502Z,20.88
2019-06-10T23:43:18.925Z,20.88
2019-06-10T23:45:44.769Z,20.81
2019-06-10T23:48:13.164Z,20.88
2019-06-10T23:50:38.355Z,20.81
2019-06-10T23:53:07.542Z,20.62
2019-06-10T23:55:32.059Z,20.69
2019-06-10T23:57:58.369Z,20.56
